createdAt,value
2022-10-23T00:01:14.785Z,7.46
2022-10-23T00:03:41.970Z,7.44
2022-10-23T00:06:09.721Z,7.46
2022-10-23T00:08:36.862Z,7.47
2022-10-23T00:11:11.853Z,7.33
2022-10-23T00:13:39.555Z,7.35
2022-10-23T00:16:07.542Z,7.35
2022-10-23T00:18:34.930Z,7.30
2022-10-23T00:21:02.621Z,7.19
2022-10-23T00:23:29.640Z,7.16
2022-10-23T00:25:56.671Z,7.23
2022-10-23T00:28:23.764Z,7.25
2022-10-23T00:30:50.813Z,7.25
2022-10-23T00:33:17.799Z,7.17
2022-10-23T00:35:44.949Z,7.24
2022-10-23T00:38:12.491Z,7.22
2022-10-23T00:40:42.355Z,7.28
2022-10-23T00:43:21.274Z,7.31
2022-10-23T00:45:48.422Z,7.34
2022-10-23T00:48:16.245Z,7.33
2022-10-23T00:50:43.532Z,7.23
2022-10-23T00:53:13.111Z,7.24
2022-10-23T00:55:46.008Z,7.24
2022-10-23T00:58:18.987Z,7.24
2022-10-23T01:00:49.839Z,7.24
2022-10-23T01:03:21.762Z,7.17
2022-10-23T01:06:03.204Z,7.22
2022-10-23T01:08:41.728Z,7.08
2022-10-23T01:11:15.293Z,7.10
2022-10-23T01:13:46.194Z,7.03
2022-10-23T01:16:22.360Z,6.91
2022-10-23T01:18:59.186Z,6.94
2022-10-23T01:21:37.734Z,6.99
2022-10-23T01:24:29.809Z,6.98
2022-10-23T01:27:17.972Z,6.93
2022-10-23T01:29:59.395Z,6.92
2022-10-23T01:32:43.276Z,6.88
2022-10-23T01:35:19.248Z,6.87
2022-10-23T01:38:02.535Z,6.79
2022-10-23T01:40:57.683Z,6.76
2022-10-23T01:43:29.242Z,6.71
2022-10-23T01:46:04.452Z,6.61
2022-10-23T01:48:34.290Z,6.56
2022-10-23T01:51:06.482Z,6.54
2022-10-23T01:53:38.585Z,6.33
2022-10-23T01:56:13.316Z,6.36
2022-10-23T01:58:44.450Z,6.29
2022-10-23T02:01:13.725Z,6.23
2022-10-23T02:03:48.659Z,6.21
2022-10-23T02:06:15.958Z,6.17
2022-10-23T02:08:43.219Z,6.13
2022-10-23T02:11:14.126Z,6.11
2022-10-23T02:14:02.475Z,6.02
2022-10-23T02:16:45.395Z,6.01
2022-10-23T02:19:27.192Z,5.96
2022-10-23T02:22:07.199Z,5.94
2022-10-23T02:25:07.207Z,5.87
2022-10-23T02:27:56.327Z,5.86
2022-10-23T02:30:31.025Z,5.82
2022-10-23T02:33:09.686Z,5.81
2022-10-23T02:35:37.046Z,5.83
2022-10-23T02:38:40.692Z,5.77
2022-10-23T02:41:23.510Z,5.77
2022-10-23T02:43:56.848Z,5.68
2022-10-23T02:46:50.104Z,5.68
2022-10-23T02:49:44.660Z,5.58
2022-10-23T02:52:39.882Z,5.59
2022-10-23T02:55:25.213Z,5.55
2022-10-23T02:58:04.318Z,5.57
2022-10-23T03:00:35.939Z,5.53
2022-10-23T03:03:10.125Z,5.52
2022-10-23T03:05:40.923Z,5.48
2022-10-23T03:08:13.627Z,5.50
2022-10-23T03:10:42.696Z,5.54
2022-10-23T03:13:12.834Z,5.53
2022-10-23T03:15:44.485Z,5.54
2022-10-23T03:18:13.981Z,5.42
2022-10-23T03:20:45.723Z,5.44
2022-10-23T03:23:14.633Z,5.45
2022-10-23T03:25:42.913Z,5.40
2022-10-23T03:28:11.071Z,5.36
2022-10-23T03:30:38.310Z,5.40
2022-10-23T03:33:05.291Z,5.40
2022-10-23T03:35:35.590Z,5.38
2022-10-23T03:38:02.678Z,5.35
2022-10-23T03:40:29.656Z,5.33
2022-10-23T03:42:56.622Z,5.34
2022-10-23T03:45:23.631Z,5.31
2022-10-23T03:47:51.871Z,5.26
2022-10-23T03:50:19.973Z,5.28
2022-10-23T03:52:47.594Z,5.22
2022-10-23T03:55:14.670Z,5.20
2022-10-23T03:57:41.622Z,5.21
2022-10-23T04:00:09.496Z,5.15
2022-10-23T04:02:47.782Z,5.08
2022-10-23T04:05:15.386Z,5.06
2022-10-23T04:07:51.695Z,5.04
2022-10-23T04:10:18.881Z,5.05
2022-10-23T04:12:46.002Z,4.89
2022-10-23T04:15:13.175Z,4.94
2022-10-23T04:17:42.909Z,5.00
2022-10-23T04:20:10.314Z,4.99
2022-10-23T04:22:37.266Z,5.04
2022-10-23T04:25:04.667Z,5.07
2022-10-23T04:27:34.605Z,5.11
2022-10-23T04:30:03.735Z,5.11
2022-10-23T04:32:31.683Z,5.01
2022-10-23T04:34:58.647Z,5.10
2022-10-23T04:37:25.806Z,5.08
2022-10-23T04:39:52.769Z,5.08
2022-10-23T04:42:19.871Z,5.13
2022-10-23T04:44:47.718Z,5.20
2022-10-23T04:47:14.663Z,5.08
2022-10-23T04:49:54.605Z,5.15
2022-10-23T04:52:35.547Z,5.16
2022-10-23T04:55:15.619Z,5.13
2022-10-23T04:57:50.130Z,5.13
2022-10-23T05:00:21.371Z,5.17
2022-10-23T05:02:51.792Z,5.25
2022-10-23T05:05:20.263Z,5.23
2022-10-23T05:07:59.994Z,5.25
2022-10-23T05:10:42.912Z,5.33
2022-10-23T05:13:12.527Z,5.39
2022-10-23T05:15:40.663Z,5.50
2022-10-23T05:18:15.592Z,5.62
2022-10-23T05:20:46.478Z,5.77
2022-10-23T05:23:16.833Z,5.83
2022-10-23T05:25:52.826Z,5.97
2022-10-23T05:28:19.890Z,6.06
2022-10-23T05:30:47.245Z,6.20
2022-10-23T05:33:16.602Z,6.31
2022-10-23T05:35:45.227Z,6.38
2022-10-23T05:38:14.873Z,6.40
2022-10-23T05:40:42.866Z,6.42
2022-10-23T05:43:15.183Z,6.41
2022-10-23T05:46:06.242Z,6.35
2022-10-23T05:48:46.308Z,6.46
2022-10-23T05:51:25.466Z,6.56
2022-10-23T05:54:00.202Z,6.61
2022-10-23T05:56:32.314Z,6.70
2022-10-23T05:59:08.330Z,6.81
2022-10-23T06:01:48.550Z,6.89
2022-10-23T06:04:21.021Z,6.87
2022-10-23T06:07:17.557Z,7.06
2022-10-23T06:09:46.285Z,7.22
2022-10-23T06:12:13.456Z,7.23
2022-10-23T06:14:43.382Z,7.35
2022-10-23T06:17:10.371Z,7.27
2022-10-23T06:19:43.678Z,7.33
2022-10-23T06:22:10.800Z,7.36
2022-10-23T06:24:48.137Z,7.27
2022-10-23T06:27:20.396Z,7.29
2022-10-23T06:29:47.458Z,7.35
2022-10-23T06:32:14.546Z,7.32
2022-10-23T06:34:47.330Z,7.32
2022-10-23T06:37:14.349Z,7.37
2022-10-23T06:39:45.421Z,7.28
2022-10-23T06:42:15.155Z,7.34
2022-10-23T06:45:08.204Z,7.52
2022-10-23T06:47:55.110Z,7.49
2022-10-23T06:50:53.412Z,7.65
2022-10-23T06:53:28.004Z,7.81
2022-10-23T06:56:07.081Z,7.97
2022-10-23T06:58:37.818Z,8.03
2022-10-23T07:01:13.837Z,8.10
2022-10-23T07:03:42.846Z,8.13
2022-10-23T07:06:11.013Z,8.22
2022-10-23T07:08:38.984Z,8.43
2022-10-23T07:11:21.975Z,8.63
2022-10-23T07:13:49.425Z,8.73
2022-10-23T07:16:23.416Z,8.88
2022-10-23T07:18:59.744Z,8.98
2022-10-23T07:21:36.205Z,9.10
2022-10-23T07:24:22.315Z,9.24
2022-10-23T07:29:17.997Z,9.13
2022-10-23T07:31:45.050Z,9.26
2022-10-23T07:34:32.171Z,9.32
2022-10-23T07:37:22.274Z,9.31
2022-10-23T07:39:49.230Z,9.27
2022-10-23T07:42:16.258Z,9.37
2022-10-23T07:44:43.237Z,9.40
2022-10-23T07:47:10.363Z,9.28
2022-10-23T07:49:40.272Z,9.26
2022-10-23T07:52:07.725Z,9.32
2022-10-23T07:54:54.765Z,9.32
2022-10-23T07:57:22.289Z,9.24
2022-10-23T07:59:55.386Z,9.42
2022-10-23T08:02:24.133Z,9.52
2022-10-23T08:04:52.422Z,9.62
2022-10-23T08:07:25.858Z,9.69
2022-10-23T08:09:55.971Z,9.68
2022-10-23T08:12:22.943Z,9.70
2022-10-23T08:14:50.071Z,9.77
2022-10-23T08:17:17.351Z,9.73
2022-10-23T08:20:02.601Z,9.64
2022-10-23T08:22:37.074Z,9.56
2022-10-23T08:25:04.760Z,9.48
2022-10-23T08:27:32.086Z,9.43
2022-10-23T08:29:59.109Z,9.47
2022-10-23T08:32:30.796Z,9.47
2022-10-23T08:35:03.056Z,9.60
2022-10-23T08:37:32.524Z,9.64
2022-10-23T08:39:59.596Z,9.73
2022-10-23T08:43:05.907Z,9.61
2022-10-23T08:45:38.420Z,9.43
2022-10-23T08:48:30.664Z,9.40
2022-10-23T08:51:42.643Z,9.56
2022-10-23T08:54:25.271Z,9.50
2022-10-23T08:57:00.497Z,9.56
2022-10-23T08:59:34.461Z,9.61
2022-10-23T09:02:04.724Z,9.48
2022-10-23T09:04:32.069Z,9.55
2022-10-23T09:07:20.196Z,9.42
2022-10-23T09:10:14.532Z,9.25
2022-10-23T09:12:42.510Z,9.16
2022-10-23T09:15:31.649Z,9.23
2022-10-23T09:18:04.831Z,9.21
2022-10-23T09:20:36.497Z,9.23
2022-10-23T09:23:19.593Z,9.20
2022-10-23T09:25:48.158Z,9.24
2022-10-23T09:28:27.742Z,9.29
2022-10-23T09:31:05.711Z,9.41
2022-10-23T09:33:34.797Z,9.52
2022-10-23T09:36:13.823Z,9.44
2022-10-23T09:38:46.785Z,9.38
2022-10-23T09:41:19.529Z,9.28
2022-10-23T09:43:47.033Z,9.27
2022-10-23T09:46:19.582Z,9.25
2022-10-23T09:48:58.257Z,9.24
2022-10-23T09:51:26.068Z,9.18
2022-10-23T09:53:58.419Z,9.29
2022-10-23T09:59:25.575Z,9.45
2022-10-23T10:01:57.196Z,9.33
2022-10-23T10:04:43.023Z,9.27
2022-10-23T10:07:21.109Z,9.17
2022-10-23T10:09:48.725Z,9.06
2022-10-23T10:12:25.912Z,8.86
2022-10-23T10:14:55.895Z,8.91
2022-10-23T10:17:50.530Z,8.93
2022-10-23T10:20:29.382Z,8.96
2022-10-23T10:23:19.452Z,8.74
2022-10-23T10:26:15.799Z,8.87
2022-10-23T10:29:05.317Z,8.68
2022-10-23T10:31:57.030Z,8.62
2022-10-23T10:34:33.131Z,8.73
2022-10-23T10:37:54.541Z,8.63
2022-10-23T10:40:33.028Z,8.53
2022-10-23T10:43:16.334Z,8.46
2022-10-23T10:46:10.488Z,8.33
2022-10-23T10:49:01.910Z,8.31
2022-10-23T10:52:10.984Z,8.21
2022-10-23T10:54:51.503Z,8.32
2022-10-23T10:57:41.419Z,8.33
2022-10-23T11:00:23.352Z,8.43
2022-10-23T11:03:00.407Z,8.51
2022-10-23T11:05:38.385Z,8.54
2022-10-23T11:08:28.026Z,8.46
2022-10-23T11:11:03.257Z,8.51
2022-10-23T11:13:40.374Z,8.56
2022-10-23T11:16:21.668Z,8.48
2022-10-23T11:19:15.338Z,8.57
2022-10-23T11:21:53.063Z,8.56
2022-10-23T11:24:22.607Z,8.58
2022-10-23T11:27:10.478Z,8.59
2022-10-23T11:30:03.991Z,8.59
2022-10-23T11:32:59.514Z,8.55
2022-10-23T11:36:03.696Z,8.46
2022-10-23T11:38:35.060Z,8.44
2022-10-23T11:41:05.778Z,8.28
2022-10-23T11:43:34.226Z,8.06
2022-10-23T11:46:29.892Z,8.19
2022-10-23T11:48:58.290Z,8.23
2022-10-23T11:51:45.629Z,8.29
2022-10-23T11:54:13.694Z,8.38
2022-10-23T11:57:09.144Z,8.43
2022-10-23T11:59:49.319Z,8.52
2022-10-23T12:02:25.662Z,8.60
2022-10-23T12:04:54.395Z,8.66
2022-10-23T12:07:29.147Z,8.72
2022-10-23T12:09:59.659Z,8.68
2022-10-23T12:12:31.320Z,8.73
2022-10-23T12:15:19.340Z,8.73
2022-10-23T12:17:48.884Z,8.76
2022-10-23T12:21:01.274Z,8.70
2022-10-23T12:23:48.390Z,8.52
2022-10-23T12:26:39.954Z,8.48
2022-10-23T12:29:12.466Z,8.23
2022-10-23T12:32:05.902Z,8.07
2022-10-23T12:35:09.569Z,8.13
2022-10-23T12:38:07.060Z,8.08
2022-10-23T12:40:34.238Z,8.06
2022-10-23T12:43:01.427Z,8.03
2022-10-23T12:45:32.783Z,8.11
2022-10-23T12:48:01.495Z,8.10
2022-10-23T12:50:31.457Z,8.07
2022-10-23T12:53:02.052Z,8.13
2022-10-23T12:58:35.243Z,8.11
2022-10-23T13:01:06.950Z,8.16
2022-10-23T13:03:35.617Z,8.18
2022-10-23T13:06:03.363Z,8.21
2022-10-23T13:08:49.179Z,8.22
2022-10-23T13:11:31.076Z,8.22
2022-10-23T13:14:01.851Z,8.16
2022-10-23T13:16:28.880Z,8.02
2022-10-23T13:18:55.800Z,8.03
2022-10-23T13:21:25.481Z,8.05
2022-10-23T13:23:53.487Z,8.05
2022-10-23T13:26:45.277Z,8.07
2022-10-23T13:29:31.244Z,8.06
2022-10-23T13:31:58.431Z,8.06
2022-10-23T13:34:30.112Z,8.05
2022-10-23T13:37:21.171Z,7.98
2022-10-23T13:40:03.402Z,7.91
2022-10-23T13:42:31.567Z,7.95
2022-10-23T13:44:58.552Z,8.01
2022-10-23T13:47:25.625Z,7.97
2022-10-23T13:49:52.618Z,8.03
2022-10-23T13:52:23.905Z,8.10
2022-10-23T13:54:51.138Z,8.16
2022-10-23T13:57:18.080Z,8.09
2022-10-23T13:59:45.743Z,8.10
2022-10-23T14:02:19.699Z,8.01
2022-10-23T14:04:47.416Z,7.97
2022-10-23T14:07:14.663Z,8.00
2022-10-23T14:09:41.684Z,7.98
2022-10-23T14:12:08.668Z,8.01
2022-10-23T14:14:35.704Z,8.06
2022-10-23T14:17:02.673Z,8.11
2022-10-23T14:19:29.711Z,8.17
2022-10-23T14:21:56.781Z,8.21
2022-10-23T14:24:23.893Z,8.18
2022-10-23T14:26:50.912Z,8.21
2022-10-23T14:29:23.920Z,8.22
2022-10-23T14:31:52.012Z,8.19
2022-10-23T14:34:19.003Z,8.01
2022-10-23T14:36:50.657Z,8.08
2022-10-23T14:39:18.458Z,8.11
2022-10-23T14:41:45.662Z,8.09
2022-10-23T14:44:12.723Z,8.08
2022-10-23T14:46:39.738Z,8.07
2022-10-23T14:49:07.205Z,8.10
2022-10-23T14:51:34.197Z,8.09
2022-10-23T14:54:04.327Z,8.09
2022-10-23T14:56:34.295Z,8.07
2022-10-23T14:59:04.706Z,8.03
2022-10-23T15:01:43.754Z,8.01
2022-10-23T15:04:14.753Z,7.91
2022-10-23T15:06:42.539Z,7.97
2022-10-23T15:09:09.554Z,7.91
2022-10-23T15:11:36.582Z,7.99
2022-10-23T15:14:03.706Z,8.02
2022-10-23T15:16:32.531Z,8.07
2022-10-23T15:18:59.648Z,8.11
2022-10-23T15:21:26.597Z,8.10
2022-10-23T15:23:54.929Z,8.14
2022-10-23T15:26:23.270Z,8.14
2022-10-23T15:28:59.271Z,8.15
2022-10-23T15:31:29.161Z,8.14
2022-10-23T15:33:59.623Z,8.18
2022-10-23T15:36:27.361Z,8.19
2022-10-23T15:38:54.347Z,8.15
2022-10-23T15:41:33.438Z,8.20
2022-10-23T15:44:02.131Z,8.14
2022-10-23T15:46:29.712Z,8.18
2022-10-23T15:48:56.722Z,8.21
2022-10-23T15:51:23.664Z,8.20
2022-10-23T15:53:50.724Z,8.18
2022-10-23T15:56:17.770Z,8.21
2022-10-23T15:58:46.409Z,8.25
2022-10-23T16:01:13.566Z,8.24
2022-10-23T16:03:40.641Z,8.23
2022-10-23T16:06:10.358Z,8.25
2022-10-23T16:08:37.930Z,8.24
2022-10-23T16:11:12.174Z,8.22
2022-10-23T16:13:39.161Z,8.13
2022-10-23T16:16:07.251Z,8.14
2022-10-23T16:18:34.270Z,8.11
2022-10-23T16:21:01.216Z,8.13
2022-10-23T16:23:28.498Z,8.14
2022-10-23T16:25:55.669Z,8.16
2022-10-23T16:28:24.150Z,8.19
2022-10-23T16:30:51.259Z,8.20
2022-10-23T16:33:18.248Z,8.22
2022-10-23T16:35:45.189Z,8.21
2022-10-23T16:38:17.553Z,8.08
2022-10-23T16:40:51.885Z,8.07
2022-10-23T16:43:48.035Z,8.06
2022-10-23T16:46:35.569Z,8.02
2022-10-23T16:49:03.455Z,8.10
2022-10-23T16:51:31.817Z,8.13
2022-10-23T16:53:59.041Z,8.18
2022-10-23T16:56:30.524Z,8.24
2022-10-23T17:01:33.160Z,8.24
2022-10-23T17:04:00.404Z,8.28
2022-10-23T17:06:30.419Z,8.32
2022-10-23T17:08:58.796Z,8.34
2022-10-23T17:11:31.158Z,8.37
2022-10-23T17:14:15.800Z,8.39
2022-10-23T17:16:46.222Z,8.40
2022-10-23T17:19:32.771Z,8.33
2022-10-23T17:22:01.793Z,8.21
2022-10-23T17:24:28.940Z,8.18
2022-10-23T17:26:56.341Z,8.11
2022-10-23T17:29:23.412Z,8.00
2022-10-23T17:31:51.190Z,8.01
2022-10-23T17:34:22.711Z,7.99
2022-10-23T17:36:54.111Z,7.94
2022-10-23T17:39:25.391Z,8.08
2022-10-23T17:41:53.595Z,8.14
2022-10-23T17:44:20.825Z,8.09
2022-10-23T17:46:54.545Z,8.13
2022-10-23T17:49:22.426Z,8.12
2022-10-23T17:51:57.606Z,8.16
2022-10-23T17:54:26.539Z,8.20
2022-10-23T17:56:54.146Z,8.17
2022-10-23T17:59:21.294Z,8.19
2022-10-23T18:01:49.228Z,8.17
2022-10-23T18:04:18.739Z,8.12
2022-10-23T18:06:53.115Z,8.13
2022-10-23T18:09:22.103Z,8.13
2022-10-23T18:11:49.446Z,8.13
2022-10-23T18:14:18.394Z,8.13
2022-10-23T18:16:46.358Z,8.12
2022-10-23T18:19:14.933Z,8.16
2022-10-23T18:21:42.210Z,8.16
2022-10-23T18:24:10.986Z,8.15
2022-10-23T18:26:41.402Z,8.18
2022-10-23T18:29:09.915Z,8.09
2022-10-23T18:31:37.860Z,8.10
2022-10-23T18:34:07.908Z,8.12
2022-10-23T18:36:38.347Z,8.13
2022-10-23T18:39:07.191Z,8.16
2022-10-23T18:41:37.236Z,8.16
2022-10-23T18:44:04.868Z,8.21
2022-10-23T18:46:32.243Z,8.24
2022-10-23T18:48:59.759Z,8.27
2022-10-23T18:51:32.651Z,8.26
2022-10-23T18:54:06.202Z,8.26
2022-10-23T18:56:35.930Z,8.28
2022-10-23T18:59:05.321Z,8.28
2022-10-23T19:01:33.681Z,8.24
2022-10-23T19:04:01.692Z,8.19
2022-10-23T19:06:29.886Z,8.20
2022-10-23T19:08:57.402Z,8.15
2022-10-23T19:11:26.781Z,8.21
2022-10-23T19:13:54.574Z,8.11
2022-10-23T19:16:31.420Z,8.17
2022-10-23T19:19:11.646Z,8.13
2022-10-23T19:21:40.481Z,8.13
2022-10-23T19:24:20.140Z,8.13
2022-10-23T19:26:47.976Z,8.10
2022-10-23T19:29:20.808Z,8.12
2022-10-23T19:31:49.992Z,8.11
2022-10-23T19:34:22.834Z,8.13
2022-10-23T19:36:50.724Z,8.17
2022-10-23T19:39:18.821Z,8.18
2022-10-23T19:41:45.942Z,8.14
2022-10-23T19:44:14.777Z,8.22
2022-10-23T19:46:42.151Z,8.23
2022-10-23T19:49:10.494Z,8.24
2022-10-23T19:51:38.421Z,8.27
2022-10-23T19:54:06.078Z,8.17
2022-10-23T19:56:33.121Z,8.24
2022-10-23T19:59:00.305Z,8.28
2022-10-23T20:01:27.444Z,8.32
2022-10-23T20:03:55.648Z,8.27
2022-10-23T20:06:25.840Z,8.33
2022-10-23T20:08:53.403Z,8.36
2022-10-23T20:11:28.176Z,8.39
2022-10-23T20:13:55.952Z,8.36
2022-10-23T20:16:31.943Z,8.38
2022-10-23T20:19:01.724Z,8.29
2022-10-23T20:21:28.794Z,8.28
2022-10-23T20:23:57.856Z,8.33
2022-10-23T20:26:25.285Z,8.32
2022-10-23T20:28:54.784Z,8.35
2022-10-23T20:31:24.106Z,8.26
2022-10-23T20:33:51.977Z,8.15
2022-10-23T20:36:31.800Z,8.17
2022-10-23T20:39:02.618Z,8.21
2022-10-23T20:41:33.172Z,8.28
2022-10-23T20:44:00.848Z,8.31
2022-10-23T20:46:28.142Z,8.20
2022-10-23T20:48:55.185Z,8.29
2022-10-23T20:51:24.247Z,8.27
2022-10-23T20:53:53.204Z,8.32
2022-10-23T20:56:32.516Z,8.31
2022-10-23T20:59:07.813Z,8.34
2022-10-23T21:01:35.497Z,8.27
2022-10-23T21:04:03.776Z,8.25
2022-10-23T21:06:45.618Z,8.31
2022-10-23T21:09:21.215Z,8.37
2022-10-23T21:11:48.373Z,8.35
2022-10-23T21:14:15.560Z,8.42
2022-10-23T21:16:46.522Z,8.39
2022-10-23T21:19:15.955Z,8.38
2022-10-23T21:21:43.779Z,8.39
2022-10-23T21:24:14.856Z,8.31
2022-10-23T21:26:42.619Z,8.34
2022-10-23T21:29:18.402Z,8.39
2022-10-23T21:31:45.976Z,8.43
2022-10-23T21:34:13.008Z,8.44
2022-10-23T21:36:54.060Z,8.47
2022-10-23T21:39:28.710Z,8.39
2022-10-23T21:41:55.722Z,8.23
2022-10-23T21:44:22.777Z,8.33
2022-10-23T21:46:49.803Z,8.31
2022-10-23T21:49:16.902Z,8.29
2022-10-23T21:51:44.175Z,8.24
2022-10-23T21:54:14.856Z,8.22
2022-10-23T21:56:46.861Z,8.12
2022-10-23T21:59:19.733Z,8.19
2022-10-23T22:01:48.536Z,8.20
2022-10-23T22:04:18.213Z,8.16
2022-10-23T22:06:47.687Z,8.16
2022-10-23T22:09:19.031Z,8.20
2022-10-23T22:11:46.378Z,8.17
2022-10-23T22:14:13.563Z,8.14
2022-10-23T22:16:42.285Z,8.08
2022-10-23T22:19:12.496Z,8.11
2022-10-23T22:21:40.429Z,8.09
2022-10-23T22:24:08.384Z,8.11
2022-10-23T22:26:39.022Z,8.13
2022-10-23T22:29:18.249Z,8.14
2022-10-23T22:31:48.858Z,7.94
2022-10-23T22:34:28.700Z,8.00
2022-10-23T22:37:09.125Z,8.02
2022-10-23T22:39:36.396Z,8.06
2022-10-23T22:42:03.495Z,7.97
2022-10-23T22:44:30.722Z,8.00
2022-10-23T22:46:57.828Z,7.98
2022-10-23T22:49:24.913Z,7.99
2022-10-23T22:51:51.909Z,8.00
2022-10-23T22:54:19.020Z,8.03
2022-10-23T22:56:46.022Z,7.99
2022-10-23T22:59:13.017Z,7.89
2022-10-23T23:01:44.058Z,7.91
2022-10-23T23:04:38.354Z,7.95
2022-10-23T23:07:10.395Z,7.97
2022-10-23T23:09:40.429Z,7.80
2022-10-23T23:12:09.902Z,7.85
2022-10-23T23:14:37.459Z,7.87
2022-10-23T23:17:04.962Z,7.89
2022-10-23T23:19:32.030Z,7.93
2022-10-23T23:21:59.477Z,7.96
2022-10-23T23:24:27.081Z,7.95
2022-10-23T23:26:54.162Z,7.93
2022-10-23T23:29:21.830Z,7.93
2022-10-23T23:31:48.983Z,7.89
2022-10-23T23:34:16.117Z,7.91
2022-10-23T23:36:43.108Z,7.88
2022-10-23T23:39:10.650Z,7.84
2022-10-23T23:41:38.026Z,7.70
2022-10-23T23:44:05.317Z,7.72
2022-10-23T23:46:32.367Z,7.75
2022-10-23T23:48:59.453Z,7.74
2022-10-23T23:51:26.937Z,7.67
2022-10-23T23:53:54.029Z,7.65
2022-10-23T23:56:21.881Z,7.66
2022-10-23T23:58:48.947Z,7.66
